Weather at Aérodrome de Montendre-Marcillac

Public forecast

Using degrees Celsius for public forecast. Weather courtesy of forecast.io.

Closest aviation weather report (METAR) to Aérodrome de Montendre-Marcillac

Closest report is Cognac-Châteaubernard (BA 709) Air Base, 23.7 nm (44.0 km) NNE. Retrieved 2022/06/27 12:30 UTC (0 seconds ago):

LFBG 271230Z AUTO 26008KT CAVOK 22/09 Q1021 NOSIG

Closest aviation forecast (TAF) to Aérodrome de Montendre-Marcillac

Closest forecast is Cognac-Châteaubernard (BA 709) Air Base, 23.7 nm (44.0 km) NNE. Retrieved 2022/06/27 09:00 UTC (3 hours ago):

TAF LFBG 270800Z 2709/2809 30008KT 9999 SCT030 TEMPO 2802/2806 0800 BCFG